sensor_id;sensor_type;location;lat;lon;timestamp;temperature;humidity
41080;DHT22;26826;50.718;7.114;2022-08-04T00:02:24;24.40;99.90
41080;DHT22;26826;50.718;7.114;2022-08-04T00:12:32;24.30;99.90
41080;DHT22;26826;50.718;7.114;2022-08-04T00:22:34;24.10;99.90
41080;DHT22;26826;50.718;7.114;2022-08-04T00:32:35;23.80;99.90
41080;DHT22;26826;50.718;7.114;2022-08-04T00:42:47;23.80;99.90
41080;DHT22;26826;50.718;7.114;2022-08-04T00:53:00;23.50;99.90
41080;DHT22;26826;50.718;7.114;2022-08-04T01:03:19;23.30;99.90
41080;DHT22;26826;50.718;7.114;2022-08-04T01:34:50;22.50;99.90
41080;DHT22;26826;50.718;7.114;2022-08-04T01:44:52;22.40;99.90
41080;DHT22;26826;50.718;7.114;2022-08-04T01:54:55;22.30;99.90
41080;DHT22;26826;50.718;7.114;2022-08-04T02:04:56;22.30;99.90
41080;DHT22;26826;50.718;7.114;2022-08-04T02:15:16;22.30;99.90
41080;DHT22;26826;50.718;7.114;2022-08-04T02:25:22;22.20;99.90
41080;DHT22;26826;50.718;7.114;2022-08-04T02:35:26;22.20;99.90
41080;DHT22;26826;50.718;7.114;2022-08-04T02:45:28;22.10;99.90
41080;DHT22;26826;50.718;7.114;2022-08-04T02:55:30;22.00;99.90
41080;DHT22;26826;50.718;7.114;2022-08-04T03:26:34;21.40;99.90
41080;DHT22;26826;50.718;7.114;2022-08-04T03:57:51;21.20;99.90
41080;DHT22;26826;50.718;7.114;2022-08-04T04:18:45;21.00;99.90
41080;DHT22;26826;50.718;7.114;2022-08-04T04:28:57;20.90;99.90
41080;DHT22;26826;50.718;7.114;2022-08-04T04:59:39;20.90;99.90
41080;DHT22;26826;50.718;7.114;2022-08-04T05:09:55;21.00;99.90
41080;DHT22;26826;50.718;7.114;2022-08-04T05:20:11;21.00;99.90
41080;DHT22;26826;50.718;7.114;2022-08-04T05:30:12;21.30;99.90
41080;DHT22;26826;50.718;7.114;2022-08-04T05:40:15;21.30;99.90
41080;DHT22;26826;50.718;7.114;2022-08-04T05:50:17;21.70;99.90
41080;DHT22;26826;50.718;7.114;2022-08-04T06:00:19;22.10;99.90
41080;DHT22;26826;50.718;7.114;2022-08-04T06:10:21;22.70;99.90
41080;DHT22;26826;50.718;7.114;2022-08-04T06:20:25;23.20;99.90
41080;DHT22;26826;50.718;7.114;2022-08-04T06:30:28;24.00;99.90
41080;DHT22;26826;50.718;7.114;2022-08-04T06:40:30;24.40;99.90
41080;DHT22;26826;50.718;7.114;2022-08-04T06:50:35;24.80;99.90
41080;DHT22;26826;50.718;7.114;2022-08-04T07:00:38;25.40;99.90
41080;DHT22;26826;50.718;7.114;2022-08-04T07:10:40;26.10;99.90
41080;DHT22;26826;50.718;7.114;2022-08-04T07:20:44;26.70;99.90
41080;DHT22;26826;50.718;7.114;2022-08-04T07:30:47;27.20;99.90
41080;DHT22;26826;50.718;7.114;2022-08-04T07:40:47;27.80;99.80
41080;DHT22;26826;50.718;7.114;2022-08-04T07:50:50;28.50;98.60
41080;DHT22;26826;50.718;7.114;2022-08-04T08:00:51;29.10;97.40
41080;DHT22;26826;50.718;7.114;2022-08-04T08:10:51;30.10;95.50
41080;DHT22;26826;50.718;7.114;2022-08-04T08:20:53;29.90;94.80
41080;DHT22;26826;50.718;7.114;2022-08-04T08:30:54;30.20;93.80
41080;DHT22;26826;50.718;7.114;2022-08-04T08:51:54;32.00;92.10
41080;DHT22;26826;50.718;7.114;2022-08-04T09:22:47;34.40;88.10
41080;DHT22;26826;50.718;7.114;2022-08-04T09:33:14;35.60;85.80
41080;DHT22;26826;50.718;7.114;2022-08-04T10:04:17;40.00;76.70
41080;DHT22;26826;50.718;7.114;2022-08-04T10:35:10;41.60;65.60
41080;DHT22;26826;50.718;7.114;2022-08-04T10:45:22;40.50;65.30
41080;DHT22;26826;50.718;7.114;2022-08-04T10:55:34;39.80;65.80
41080;DHT22;26826;50.718;7.114;2022-08-04T11:05:48;39.30;67.00
41080;DHT22;26826;50.718;7.114;2022-08-04T11:15:53;39.00;66.20
41080;DHT22;26826;50.718;7.114;2022-08-04T11:26:20;39.60;63.00
41080;DHT22;26826;50.718;7.114;2022-08-04T11:46:50;41.70;56.70
41080;DHT22;26826;50.718;7.114;2022-08-04T11:56:53;42.50;53.60
41080;DHT22;26826;50.718;7.114;2022-08-04T12:07:03;40.30;55.50
41080;DHT22;26826;50.718;7.114;2022-08-04T12:17:06;39.10;59.60
41080;DHT22;26826;50.718;7.114;2022-08-04T12:37:54;36.70;64.50
41080;DHT22;26826;50.718;7.114;2022-08-04T12:47:59;36.00;66.20
41080;DHT22;26826;50.718;7.114;2022-08-04T12:58:02;35.80;67.60
41080;DHT22;26826;50.718;7.114;2022-08-04T13:08:11;35.50;67.90
41080;DHT22;26826;50.718;7.114;2022-08-04T13:18:12;35.10;69.10
41080;DHT22;26826;50.718;7.114;2022-08-04T13:28:24;34.30;69.90
41080;DHT22;26826;50.718;7.114;2022-08-04T13:38:26;34.30;69.10
41080;DHT22;26826;50.718;7.114;2022-08-04T13:48:35;34.00;69.10
41080;DHT22;26826;50.718;7.114;2022-08-04T13:58:41;34.50;69.00
41080;DHT22;26826;50.718;7.114;2022-08-04T14:18:58;36.70;67.60
41080;DHT22;26826;50.718;7.114;2022-08-04T14:29:10;37.80;66.50
41080;DHT22;26826;50.718;7.114;2022-08-04T14:39:11;38.20;66.10
41080;DHT22;26826;50.718;7.114;2022-08-04T14:49:12;38.40;65.10
41080;DHT22;26826;50.718;7.114;2022-08-04T14:59:13;37.70;65.30
41080;DHT22;26826;50.718;7.114;2022-08-04T15:09:13;36.30;66.50
41080;DHT22;26826;50.718;7.114;2022-08-04T15:19:14;35.50;68.40
41080;DHT22;26826;50.718;7.114;2022-08-04T15:29:19;35.90;69.00
41080;DHT22;26826;50.718;7.114;2022-08-04T15:39:32;35.70;68.90
41080;DHT22;26826;50.718;7.114;2022-08-04T15:49:35;35.30;69.60
41080;DHT22;26826;50.718;7.114;2022-08-04T16:00:01;34.50;70.70
41080;DHT22;26826;50.718;7.114;2022-08-04T16:20:33;32.70;72.70
41080;DHT22;26826;50.718;7.114;2022-08-04T16:30:39;32.10;74.70
41080;DHT22;26826;50.718;7.114;2022-08-04T16:40:41;29.80;88.40
41080;DHT22;26826;50.718;7.114;2022-08-04T17:00:52;26.80;99.90
41080;DHT22;26826;50.718;7.114;2022-08-04T17:10:53;27.00;99.90
41080;DHT22;26826;50.718;7.114;2022-08-04T17:20:56;27.10;99.90
41080;DHT22;26826;50.718;7.114;2022-08-04T17:30:58;27.20;99.90
41080;DHT22;26826;50.718;7.114;2022-08-04T17:41:00;27.30;99.90
41080;DHT22;26826;50.718;7.114;2022-08-04T17:51:14;28.50;99.90
41080;DHT22;26826;50.718;7.114;2022-08-04T18:01:15;29.10;99.90
41080;DHT22;26826;50.718;7.114;2022-08-04T18:11:19;28.70;99.90
41080;DHT22;26826;50.718;7.114;2022-08-04T18:21:19;29.10;99.90
41080;DHT22;26826;50.718;7.114;2022-08-04T18:31:20;28.70;99.90
41080;DHT22;26826;50.718;7.114;2022-08-04T18:41:20;28.50;99.90
41080;DHT22;26826;50.718;7.114;2022-08-04T18:51:21;28.50;99.90
41080;DHT22;26826;50.718;7.114;2022-08-04T19:01:22;28.40;99.90
41080;DHT22;26826;50.718;7.114;2022-08-04T19:11:23;28.00;99.90
41080;DHT22;26826;50.718;7.114;2022-08-04T19:21:24;27.80;99.90
41080;DHT22;26826;50.718;7.114;2022-08-04T19:31:24;27.50;99.90
41080;DHT22;26826;50.718;7.114;2022-08-04T19:41:26;27.60;99.90
41080;DHT22;26826;50.718;7.114;2022-08-04T19:51:30;27.20;99.90
41080;DHT22;26826;50.718;7.114;2022-08-04T20:01:38;26.80;99.90
41080;DHT22;26826;50.718;7.114;2022-08-04T20:11:39;26.40;99.90
41080;DHT22;26826;50.718;7.114;2022-08-04T20:21:40;26.10;99.90
41080;DHT22;26826;50.718;7.114;2022-08-04T20:31:40;26.00;99.90
41080;DHT22;26826;50.718;7.114;2022-08-04T20:41:41;25.70;99.90
41080;DHT22;26826;50.718;7.114;2022-08-04T20:51:41;25.50;99.90
41080;DHT22;26826;50.718;7.114;2022-08-04T21:01:42;25.40;99.90
41080;DHT22;26826;50.718;7.114;2022-08-04T21:11:43;25.30;99.90
41080;DHT22;26826;50.718;7.114;2022-08-04T21:21:44;25.10;99.90
41080;DHT22;26826;50.718;7.114;2022-08-04T21:31:45;24.90;99.90
41080;DHT22;26826;50.718;7.114;2022-08-04T21:41:45;24.90;99.90
41080;DHT22;26826;50.718;7.114;2022-08-04T21:51:46;24.90;99.90
41080;DHT22;26826;50.718;7.114;2022-08-04T22:01:47;24.80;99.90
41080;DHT22;26826;50.718;7.114;2022-08-04T22:11:48;24.80;99.90
41080;DHT22;26826;50.718;7.114;2022-08-04T22:21:48;24.70;99.90
41080;DHT22;26826;50.718;7.114;2022-08-04T22:31:49;24.60;99.90
41080;DHT22;26826;50.718;7.114;2022-08-04T22:41:50;24.50;99.90
41080;DHT22;26826;50.718;7.114;2022-08-04T22:51:52;24.40;99.90
41080;DHT22;26826;50.718;7.114;2022-08-04T23:01:53;24.40;99.90
41080;DHT22;26826;50.718;7.114;2022-08-04T23:11:55;24.50;99.90
41080;DHT22;26826;50.718;7.114;2022-08-04T23:21:56;24.50;99.90
41080;DHT22;26826;50.718;7.114;2022-08-04T23:31:56;24.20;99.90
41080;DHT22;26826;50.718;7.114;2022-08-04T23:41:57;23.90;99.90
41080;DHT22;26826;50.718;7.114;2022-08-04T23:51:57;23.50;99.90
